sensor_id;sensor_type;location;lat;lon;timestamp;P1;durP1;ratioP1;P2;durP2;ratioP2
20910;SDS011;10615;42.702;23.314;2023-03-30T00:00:36;3.38;;;2.13;;
20910;SDS011;10615;42.702;23.314;2023-03-30T00:01:37;2.97;;;1.95;;
20910;SDS011;10615;42.702;23.314;2023-03-30T00:02:37;2.67;;;1.90;;
20910;SDS011;10615;42.702;23.314;2023-03-30T00:03:43;2.75;;;1.75;;
20910;SDS011;10615;42.702;23.314;2023-03-30T00:04:45;3.03;;;2.13;;
20910;SDS011;10615;42.702;23.314;2023-03-30T00:05:46;4.47;;;2.13;;
20910;SDS011;10615;42.702;23.314;2023-03-30T00:06:47;2.33;;;1.70;;
20910;SDS011;10615;42.702;23.314;2023-03-30T00:07:49;3.90;;;2.20;;
20910;SDS011;10615;42.702;23.314;2023-03-30T00:08:52;5.85;;;2.25;;
20910;SDS011;10615;42.702;23.314;2023-03-30T00:09:57;3.42;;;2.13;;
20910;SDS011;10615;42.702;23.314;2023-03-30T00:12:07;2.83;;;1.80;;
20910;SDS011;10615;42.702;23.314;2023-03-30T00:13:09;3.47;;;1.92;;
20910;SDS011;10615;42.702;23.314;2023-03-30T00:14:10;3.20;;;1.73;;
20910;SDS011;10615;42.702;23.314;2023-03-30T00:15:12;3.55;;;2.10;;
20910;SDS011;10615;42.702;23.314;2023-03-30T00:16:14;4.28;;;2.05;;
20910;SDS011;10615;42.702;23.314;2023-03-30T00:17:15;3.13;;;1.85;;
20910;SDS011;10615;42.702;23.314;2023-03-30T00:18:16;3.08;;;2.00;;
20910;SDS011;10615;42.702;23.314;2023-03-30T00:19:17;4.78;;;1.90;;
20910;SDS011;10615;42.702;23.314;2023-03-30T00:20:17;2.78;;;1.98;;
20910;SDS011;10615;42.702;23.314;2023-03-30T00:21:18;2.90;;;1.95;;
20910;SDS011;10615;42.702;23.314;2023-03-30T00:22:19;2.95;;;2.03;;
20910;SDS011;10615;42.702;23.314;2023-03-30T00:23:20;4.32;;;2.10;;
20910;SDS011;10615;42.702;23.314;2023-03-30T00:24:21;3.35;;;2.15;;
20910;SDS011;10615;42.702;23.314;2023-03-30T00:25:22;2.88;;;1.90;;
20910;SDS011;10615;42.702;23.314;2023-03-30T00:26:22;2.80;;;1.98;;
20910;SDS011;10615;42.702;23.314;2023-03-30T00:27:23;4.45;;;2.10;;
20910;SDS011;10615;42.702;23.314;2023-03-30T00:28:24;7.57;;;2.25;;
20910;SDS011;10615;42.702;23.314;2023-03-30T00:29:25;2.67;;;1.92;;
20910;SDS011;10615;42.702;23.314;2023-03-30T00:30:25;2.58;;;1.92;;
20910;SDS011;10615;42.702;23.314;2023-03-30T00:31:26;2.70;;;1.95;;
20910;SDS011;10615;42.702;23.314;2023-03-30T00:32:27;2.97;;;1.98;;
20910;SDS011;10615;42.702;23.314;2023-03-30T00:33:27;2.70;;;2.00;;
20910;SDS011;10615;42.702;23.314;2023-03-30T00:34:28;3.05;;;1.80;;
20910;SDS011;10615;42.702;23.314;2023-03-30T00:35:29;2.92;;;2.08;;
20910;SDS011;10615;42.702;23.314;2023-03-30T00:36:30;5.80;;;2.40;;
20910;SDS011;10615;42.702;23.314;2023-03-30T00:37:36;3.25;;;2.22;;
20910;SDS011;10615;42.702;23.314;2023-03-30T00:38:36;3.50;;;2.35;;
20910;SDS011;10615;42.702;23.314;2023-03-30T00:39:37;4.03;;;2.28;;
20910;SDS011;10615;42.702;23.314;2023-03-30T00:40:37;4.05;;;2.28;;
20910;SDS011;10615;42.702;23.314;2023-03-30T00:41:38;6.07;;;2.20;;
20910;SDS011;10615;42.702;23.314;2023-03-30T00:42:39;4.07;;;2.67;;
20910;SDS011;10615;42.702;23.314;2023-03-30T00:46:10;5.60;;;2.45;;
20910;SDS011;10615;42.702;23.314;2023-03-30T00:47:10;2.83;;;2.10;;
20910;SDS011;10615;42.702;23.314;2023-03-30T00:49:14;3.97;;;2.38;;
20910;SDS011;10615;42.702;23.314;2023-03-30T00:50:15;3.05;;;2.47;;
20910;SDS011;10615;42.702;23.314;2023-03-30T00:51:20;4.85;;;2.33;;
20910;SDS011;10615;42.702;23.314;2023-03-30T00:52:21;4.03;;;2.22;;
20910;SDS011;10615;42.702;23.314;2023-03-30T00:54:30;4.28;;;2.38;;
20910;SDS011;10615;42.702;23.314;2023-03-30T00:55:31;3.92;;;2.22;;
20910;SDS011;10615;42.702;23.314;2023-03-30T00:56:34;4.32;;;2.35;;
20910;SDS011;10615;42.702;23.314;2023-03-30T00:57:35;4.57;;;2.30;;
20910;SDS011;10615;42.702;23.314;2023-03-30T00:58:38;3.08;;;2.40;;
20910;SDS011;10615;42.702;23.314;2023-03-30T00:59:40;5.03;;;2.50;;
20910;SDS011;10615;42.702;23.314;2023-03-30T01:00:41;5.95;;;2.58;;
20910;SDS011;10615;42.702;23.314;2023-03-30T01:01:42;3.65;;;2.20;;
20910;SDS011;10615;42.702;23.314;2023-03-30T01:02:50;6.13;;;2.58;;
20910;SDS011;10615;42.702;23.314;2023-03-30T01:03:58;5.18;;;2.65;;
20910;SDS011;10615;42.702;23.314;2023-03-30T01:05:01;3.10;;;2.35;;
20910;SDS011;10615;42.702;23.314;2023-03-30T01:06:04;5.13;;;2.80;;
20910;SDS011;10615;42.702;23.314;2023-03-30T01:07:09;3.45;;;2.42;;
20910;SDS011;10615;42.702;23.314;2023-03-30T01:08:11;4.50;;;2.45;;
20910;SDS011;10615;42.702;23.314;2023-03-30T01:09:15;3.25;;;2.33;;
20910;SDS011;10615;42.702;23.314;2023-03-30T01:10:17;2.80;;;2.20;;
20910;SDS011;10615;42.702;23.314;2023-03-30T01:11:19;3.25;;;2.38;;
20910;SDS011;10615;42.702;23.314;2023-03-30T01:12:20;3.67;;;2.40;;
20910;SDS011;10615;42.702;23.314;2023-03-30T01:13:21;4.82;;;2.58;;
20910;SDS011;10615;42.702;23.314;2023-03-30T01:14:21;5.32;;;2.30;;
20910;SDS011;10615;42.702;23.314;2023-03-30T01:15:22;2.97;;;2.30;;
20910;SDS011;10615;42.702;23.314;2023-03-30T01:17:08;3.35;;;2.20;;
20910;SDS011;10615;42.702;23.314;2023-03-30T01:18:34;3.38;;;2.35;;
20910;SDS011;10615;42.702;23.314;2023-03-30T01:20:08;3.15;;;2.22;;
20910;SDS011;10615;42.702;23.314;2023-03-30T01:44:22;3.95;;;2.53;;
20910;SDS011;10615;42.702;23.314;2023-03-30T01:46:53;4.53;;;2.60;;
20910;SDS011;10615;42.702;23.314;2023-03-30T01:49:13;4.10;;;2.50;;
20910;SDS011;10615;42.702;23.314;2023-03-30T01:50:23;5.72;;;2.67;;
20910;SDS011;10615;42.702;23.314;2023-03-30T01:51:29;6.85;;;2.50;;
20910;SDS011;10615;42.702;23.314;2023-03-30T01:53:53;5.60;;;2.30;;
20910;SDS011;10615;42.702;23.314;2023-03-30T01:56:28;6.05;;;2.90;;
20910;SDS011;10615;42.702;23.314;2023-03-30T01:59:11;5.65;;;2.75;;
20910;SDS011;10615;42.702;23.314;2023-03-30T02:00:16;5.15;;;2.83;;
20910;SDS011;10615;42.702;23.314;2023-03-30T02:01:20;4.25;;;2.42;;
20910;SDS011;10615;42.702;23.314;2023-03-30T02:02:23;4.53;;;2.35;;
20910;SDS011;10615;42.702;23.314;2023-03-30T02:03:28;4.68;;;2.35;;
20910;SDS011;10615;42.702;23.314;2023-03-30T02:04:33;4.53;;;2.70;;
20910;SDS011;10615;42.702;23.314;2023-03-30T02:05:37;4.85;;;2.63;;
20910;SDS011;10615;42.702;23.314;2023-03-30T02:06:41;4.65;;;2.55;;
20910;SDS011;10615;42.702;23.314;2023-03-30T02:07:48;4.45;;;2.25;;
20910;SDS011;10615;42.702;23.314;2023-03-30T02:08:53;4.65;;;2.47;;
20910;SDS011;10615;42.702;23.314;2023-03-30T02:09:59;4.30;;;2.10;;
20910;SDS011;10615;42.702;23.314;2023-03-30T02:11:03;4.88;;;2.10;;
20910;SDS011;10615;42.702;23.314;2023-03-30T02:12:04;2.95;;;2.20;;
20910;SDS011;10615;42.702;23.314;2023-03-30T02:13:08;2.90;;;2.20;;
20910;SDS011;10615;42.702;23.314;2023-03-30T02:14:11;3.90;;;2.30;;
20910;SDS011;10615;42.702;23.314;2023-03-30T02:15:15;5.38;;;2.78;;
20910;SDS011;10615;42.702;23.314;2023-03-30T02:16:21;4.65;;;2.20;;
20910;SDS011;10615;42.702;23.314;2023-03-30T02:17:29;3.65;;;1.90;;
20910;SDS011;10615;42.702;23.314;2023-03-30T02:18:30;4.47;;;2.30;;
20910;SDS011;10615;42.702;23.314;2023-03-30T02:19:31;5.15;;;2.17;;
20910;SDS011;10615;42.702;23.314;2023-03-30T02:20:33;3.70;;;2.20;;
20910;SDS011;10615;42.702;23.314;2023-03-30T02:21:34;4.32;;;2.47;;
20910;SDS011;10615;42.702;23.314;2023-03-30T02:22:35;4.57;;;2.30;;
20910;SDS011;10615;42.702;23.314;2023-03-30T02:23:37;4.13;;;2.30;;
20910;SDS011;10615;42.702;23.314;2023-03-30T02:24:41;3.08;;;2.17;;
20910;SDS011;10615;42.702;23.314;2023-03-30T02:25:44;5.00;;;2.45;;
20910;SDS011;10615;42.702;23.314;2023-03-30T02:26:45;4.45;;;2.00;;
20910;SDS011;10615;42.702;23.314;2023-03-30T02:27:48;2.95;;;2.15;;
20910;SDS011;10615;42.702;23.314;2023-03-30T02:28:49;2.70;;;2.25;;
20910;SDS011;10615;42.702;23.314;2023-03-30T02:29:50;3.78;;;2.22;;
20910;SDS011;10615;42.702;23.314;2023-03-30T02:30:51;3.25;;;1.77;;
20910;SDS011;10615;42.702;23.314;2023-03-30T02:31:53;4.18;;;2.47;;
20910;SDS011;10615;42.702;23.314;2023-03-30T02:32:56;3.08;;;2.03;;
20910;SDS011;10615;42.702;23.314;2023-03-30T02:34:02;3.13;;;2.10;;
20910;SDS011;10615;42.702;23.314;2023-03-30T02:39:38;5.20;;;2.15;;
20910;SDS011;10615;42.702;23.314;2023-03-30T02:53:19;3.90;;;2.38;;
20910;SDS011;10615;42.702;23.314;2023-03-30T02:55:24;4.93;;;2.45;;
20910;SDS011;10615;42.702;23.314;2023-03-30T02:56:24;4.82;;;2.47;;
20910;SDS011;10615;42.702;23.314;2023-03-30T02:59:03;4.43;;;2.50;;
20910;SDS011;10615;42.702;23.314;2023-03-30T03:01:59;5.70;;;2.70;;
20910;SDS011;10615;42.702;23.314;2023-03-30T03:03:07;5.35;;;2.80;;
20910;SDS011;10615;42.702;23.314;2023-03-30T03:04:22;5.93;;;3.05;;
20910;SDS011;10615;42.702;23.314;2023-03-30T03:05:27;4.78;;;2.42;;
20910;SDS011;10615;42.702;23.314;2023-03-30T03:06:28;4.55;;;2.72;;
20910;SDS011;10615;42.702;23.314;2023-03-30T03:07:31;5.00;;;2.40;;
20910;SDS011;10615;42.702;23.314;2023-03-30T03:08:33;3.35;;;2.22;;
20910;SDS011;10615;42.702;23.314;2023-03-30T03:09:36;6.30;;;2.85;;
20910;SDS011;10615;42.702;23.314;2023-03-30T03:10:36;6.43;;;2.80;;
20910;SDS011;10615;42.702;23.314;2023-03-30T03:11:37;6.05;;;2.83;;
20910;SDS011;10615;42.702;23.314;2023-03-30T03:12:38;6.18;;;2.70;;
20910;SDS011;10615;42.702;23.314;2023-03-30T03:13:38;4.28;;;2.63;;
20910;SDS011;10615;42.702;23.314;2023-03-30T03:14:39;4.25;;;2.22;;
20910;SDS011;10615;42.702;23.314;2023-03-30T03:15:40;5.53;;;3.00;;
20910;SDS011;10615;42.702;23.314;2023-03-30T03:16:44;4.80;;;2.55;;
20910;SDS011;10615;42.702;23.314;2023-03-30T03:17:44;5.18;;;2.95;;
20910;SDS011;10615;42.702;23.314;2023-03-30T03:18:45;3.75;;;2.80;;
20910;SDS011;10615;42.702;23.314;2023-03-30T03:19:49;6.63;;;2.53;;
20910;SDS011;10615;42.702;23.314;2023-03-30T03:20:50;4.00;;;2.60;;
20910;SDS011;10615;42.702;23.314;2023-03-30T03:21:50;4.00;;;2.70;;
20910;SDS011;10615;42.702;23.314;2023-03-30T03:22:51;3.97;;;2.58;;
20910;SDS011;10615;42.702;23.314;2023-03-30T03:23:52;4.03;;;2.55;;
20910;SDS011;10615;42.702;23.314;2023-03-30T03:24:52;5.70;;;2.55;;
20910;SDS011;10615;42.702;23.314;2023-03-30T03:25:53;3.67;;;2.90;;
20910;SDS011;10615;42.702;23.314;2023-03-30T03:26:54;6.32;;;2.58;;
20910;SDS011;10615;42.702;23.314;2023-03-30T03:27:55;4.35;;;2.80;;
20910;SDS011;10615;42.702;23.314;2023-03-30T03:28:56;3.67;;;2.65;;
20910;SDS011;10615;42.702;23.314;2023-03-30T03:29:57;4.45;;;3.00;;
20910;SDS011;10615;42.702;23.314;2023-03-30T03:30:57;4.18;;;2.65;;
20910;SDS011;10615;42.702;23.314;2023-03-30T03:31:58;3.47;;;2.58;;
20910;SDS011;10615;42.702;23.314;2023-03-30T03:32:59;6.70;;;2.70;;
20910;SDS011;10615;42.702;23.314;2023-03-30T03:34:00;5.25;;;2.67;;
20910;SDS011;10615;42.702;23.314;2023-03-30T03:35:01;4.22;;;3.00;;
20910;SDS011;10615;42.702;23.314;2023-03-30T03:36:03;5.68;;;2.85;;
20910;SDS011;10615;42.702;23.314;2023-03-30T03:37:04;4.97;;;3.00;;
20910;SDS011;10615;42.702;23.314;2023-03-30T03:38:05;4.32;;;3.00;;
20910;SDS011;10615;42.702;23.314;2023-03-30T03:39:06;6.45;;;3.17;;
20910;SDS011;10615;42.702;23.314;2023-03-30T03:40:07;5.43;;;2.97;;
20910;SDS011;10615;42.702;23.314;2023-03-30T03:41:10;4.47;;;3.25;;
20910;SDS011;10615;42.702;23.314;2023-03-30T03:42:11;5.10;;;3.15;;
20910;SDS011;10615;42.702;23.314;2023-03-30T03:43:11;3.70;;;2.95;;
20910;SDS011;10615;42.702;23.314;2023-03-30T03:44:12;4.68;;;3.30;;
20910;SDS011;10615;42.702;23.314;2023-03-30T03:45:13;5.30;;;3.40;;
20910;SDS011;10615;42.702;23.314;2023-03-30T03:46:13;5.03;;;3.05;;
20910;SDS011;10615;42.702;23.314;2023-03-30T03:47:14;4.45;;;3.03;;
20910;SDS011;10615;42.702;23.314;2023-03-30T03:48:16;4.55;;;3.05;;
20910;SDS011;10615;42.702;23.314;2023-03-30T03:49:19;6.10;;;3.30;;
20910;SDS011;10615;42.702;23.314;2023-03-30T03:50:20;4.13;;;3.30;;
20910;SDS011;10615;42.702;23.314;2023-03-30T03:51:21;5.45;;;3.47;;
20910;SDS011;10615;42.702;23.314;2023-03-30T03:52:21;5.18;;;3.40;;
20910;SDS011;10615;42.702;23.314;2023-03-30T03:53:23;5.03;;;3.50;;
20910;SDS011;10615;42.702;23.314;2023-03-30T03:54:25;5.20;;;3.42;;
20910;SDS011;10615;42.702;23.314;2023-03-30T03:55:26;4.00;;;3.35;;
20910;SDS011;10615;42.702;23.314;2023-03-30T03:56:28;5.90;;;3.40;;
20910;SDS011;10615;42.702;23.314;2023-03-30T03:57:28;6.28;;;3.55;;
20910;SDS011;10615;42.702;23.314;2023-03-30T03:58:29;6.97;;;3.40;;
20910;SDS011;10615;42.702;23.314;2023-03-30T03:59:30;5.28;;;3.55;;
20910;SDS011;10615;42.702;23.314;2023-03-30T04:00:31;6.40;;;3.10;;
20910;SDS011;10615;42.702;23.314;2023-03-30T04:01:32;6.80;;;3.03;;
20910;SDS011;10615;42.702;23.314;2023-03-30T04:02:33;5.28;;;3.20;;
20910;SDS011;10615;42.702;23.314;2023-03-30T04:03:34;7.05;;;3.40;;
20910;SDS011;10615;42.702;23.314;2023-03-30T04:04:35;6.03;;;3.38;;
20910;SDS011;10615;42.702;23.314;2023-03-30T04:05:35;7.35;;;3.58;;
20910;SDS011;10615;42.702;23.314;2023-03-30T04:06:36;3.97;;;2.95;;
20910;SDS011;10615;42.702;23.314;2023-03-30T04:07:37;4.35;;;2.88;;
20910;SDS011;10615;42.702;23.314;2023-03-30T04:08:37;5.38;;;3.20;;
20910;SDS011;10615;42.702;23.314;2023-03-30T04:09:38;4.68;;;3.30;;
20910;SDS011;10615;42.702;23.314;2023-03-30T04:10:39;4.78;;;2.85;;
20910;SDS011;10615;42.702;23.314;2023-03-30T04:11:41;5.22;;;3.30;;
20910;SDS011;10615;42.702;23.314;2023-03-30T04:12:41;6.72;;;3.03;;
20910;SDS011;10615;42.702;23.314;2023-03-30T04:13:42;6.63;;;3.53;;
20910;SDS011;10615;42.702;23.314;2023-03-30T04:14:43;5.10;;;3.30;;
20910;SDS011;10615;42.702;23.314;2023-03-30T04:15:43;5.05;;;3.20;;
20910;SDS011;10615;42.702;23.314;2023-03-30T04:16:44;6.82;;;3.20;;
20910;SDS011;10615;42.702;23.314;2023-03-30T04:17:45;6.70;;;3.15;;
20910;SDS011;10615;42.702;23.314;2023-03-30T04:18:48;8.88;;;3.83;;
20910;SDS011;10615;42.702;23.314;2023-03-30T04:19:49;8.75;;;4.10;;
20910;SDS011;10615;42.702;23.314;2023-03-30T04:20:52;8.63;;;5.30;;
20910;SDS011;10615;42.702;23.314;2023-03-30T04:21:53;5.00;;;3.53;;
20910;SDS011;10615;42.702;23.314;2023-03-30T04:22:54;7.68;;;3.65;;
20910;SDS011;10615;42.702;23.314;2023-03-30T04:23:55;5.47;;;3.70;;
20910;SDS011;10615;42.702;23.314;2023-03-30T04:24:56;6.30;;;3.88;;
20910;SDS011;10615;42.702;23.314;2023-03-30T04:25:58;5.22;;;3.95;;
20910;SDS011;10615;42.702;23.314;2023-03-30T04:27:01;4.07;;;3.58;;
20910;SDS011;10615;42.702;23.314;2023-03-30T04:28:01;4.43;;;3.72;;
20910;SDS011;10615;42.702;23.314;2023-03-30T04:29:03;5.32;;;3.28;;
20910;SDS011;10615;42.702;23.314;2023-03-30T04:30:05;4.82;;;3.13;;
20910;SDS011;10615;42.702;23.314;2023-03-30T04:31:07;4.68;;;3.17;;
20910;SDS011;10615;42.702;23.314;2023-03-30T04:32:09;5.70;;;3.15;;
20910;SDS011;10615;42.702;23.314;2023-03-30T04:33:11;5.40;;;3.10;;
20910;SDS011;10615;42.702;23.314;2023-03-30T04:34:13;6.10;;;3.47;;
20910;SDS011;10615;42.702;23.314;2023-03-30T04:35:14;6.55;;;3.10;;
20910;SDS011;10615;42.702;23.314;2023-03-30T04:36:16;6.00;;;3.25;;
20910;SDS011;10615;42.702;23.314;2023-03-30T04:37:17;4.97;;;3.17;;
20910;SDS011;10615;42.702;23.314;2023-03-30T04:38:29;5.43;;;3.22;;
20910;SDS011;10615;42.702;23.314;2023-03-30T04:39:30;5.75;;;3.58;;
20910;SDS011;10615;42.702;23.314;2023-03-30T04:40:30;6.82;;;3.42;;
20910;SDS011;10615;42.702;23.314;2023-03-30T04:41:32;8.32;;;3.58;;
20910;SDS011;10615;42.702;23.314;2023-03-30T04:42:34;4.95;;;3.47;;
20910;SDS011;10615;42.702;23.314;2023-03-30T04:43:36;5.57;;;3.50;;
20910;SDS011;10615;42.702;23.314;2023-03-30T04:44:38;8.70;;;3.63;;
20910;SDS011;10615;42.702;23.314;2023-03-30T04:45:39;10.93;;;3.80;;
20910;SDS011;10615;42.702;23.314;2023-03-30T04:46:40;5.38;;;3.38;;
20910;SDS011;10615;42.702;23.314;2023-03-30T04:47:41;6.25;;;3.42;;
20910;SDS011;10615;42.702;23.314;2023-03-30T04:48:42;5.47;;;3.55;;
20910;SDS011;10615;42.702;23.314;2023-03-30T04:49:42;8.40;;;3.88;;
20910;SDS011;10615;42.702;23.314;2023-03-30T04:50:43;6.50;;;4.13;;
20910;SDS011;10615;42.702;23.314;2023-03-30T04:51:45;7.63;;;4.18;;
20910;SDS011;10615;42.702;23.314;2023-03-30T04:52:46;7.30;;;4.38;;
20910;SDS011;10615;42.702;23.314;2023-03-30T04:53:46;6.05;;;3.80;;
20910;SDS011;10615;42.702;23.314;2023-03-30T04:54:47;13.40;;;4.10;;
20910;SDS011;10615;42.702;23.314;2023-03-30T04:55:49;10.70;;;4.20;;
20910;SDS011;10615;42.702;23.314;2023-03-30T04:56:50;7.15;;;4.50;;
20910;SDS011;10615;42.702;23.314;2023-03-30T04:57:51;7.63;;;3.70;;
20910;SDS011;10615;42.702;23.314;2023-03-30T04:58:51;8.50;;;4.25;;
20910;SDS011;10615;42.702;23.314;2023-03-30T04:59:52;7.20;;;4.07;;
20910;SDS011;10615;42.702;23.314;2023-03-30T05:00:54;8.13;;;3.88;;
20910;SDS011;10615;42.702;23.314;2023-03-30T05:01:54;7.15;;;3.80;;
20910;SDS011;10615;42.702;23.314;2023-03-30T05:02:55;8.23;;;3.65;;
20910;SDS011;10615;42.702;23.314;2023-03-30T05:03:56;9.98;;;3.70;;
20910;SDS011;10615;42.702;23.314;2023-03-30T05:04:57;6.20;;;3.97;;
20910;SDS011;10615;42.702;23.314;2023-03-30T05:05:57;7.20;;;4.07;;
20910;SDS011;10615;42.702;23.314;2023-03-30T05:06:58;7.30;;;3.88;;
20910;SDS011;10615;42.702;23.314;2023-03-30T05:07:59;8.80;;;4.10;;
20910;SDS011;10615;42.702;23.314;2023-03-30T05:09:00;8.82;;;4.30;;
20910;SDS011;10615;42.702;23.314;2023-03-30T05:10:01;9.23;;;3.95;;
20910;SDS011;10615;42.702;23.314;2023-03-30T05:11:02;8.10;;;4.13;;
20910;SDS011;10615;42.702;23.314;2023-03-30T05:12:04;7.30;;;4.20;;
20910;SDS011;10615;42.702;23.314;2023-03-30T05:13:05;9.07;;;4.15;;
20910;SDS011;10615;42.702;23.314;2023-03-30T05:14:05;7.82;;;4.63;;
20910;SDS011;10615;42.702;23.314;2023-03-30T05:15:06;9.13;;;4.85;;
20910;SDS011;10615;42.702;23.314;2023-03-30T05:16:07;8.40;;;4.50;;
20910;SDS011;10615;42.702;23.314;2023-03-30T05:17:08;8.00;;;5.00;;
20910;SDS011;10615;42.702;23.314;2023-03-30T05:18:09;9.82;;;5.03;;
20910;SDS011;10615;42.702;23.314;2023-03-30T05:19:10;11.30;;;5.35;;
20910;SDS011;10615;42.702;23.314;2023-03-30T05:20:11;8.65;;;5.45;;
20910;SDS011;10615;42.702;23.314;2023-03-30T05:21:13;10.80;;;6.32;;
20910;SDS011;10615;42.702;23.314;2023-03-30T05:22:13;20.00;;;11.30;;
20910;SDS011;10615;42.702;23.314;2023-03-30T05:23:14;25.55;;;12.77;;
20910;SDS011;10615;42.702;23.314;2023-03-30T05:24:15;17.05;;;9.23;;
20910;SDS011;10615;42.702;23.314;2023-03-30T05:25:16;13.55;;;6.88;;
20910;SDS011;10615;42.702;23.314;2023-03-30T05:26:16;13.63;;;7.40;;
20910;SDS011;10615;42.702;23.314;2023-03-30T05:27:17;12.32;;;5.40;;
20910;SDS011;10615;42.702;23.314;2023-03-30T05:28:18;9.30;;;5.85;;
20910;SDS011;10615;42.702;23.314;2023-03-30T05:29:19;9.68;;;4.88;;
20910;SDS011;10615;42.702;23.314;2023-03-30T05:30:20;7.93;;;4.50;;
20910;SDS011;10615;42.702;23.314;2023-03-30T05:31:21;10.85;;;4.82;;
20910;SDS011;10615;42.702;23.314;2023-03-30T05:32:21;13.50;;;4.32;;
20910;SDS011;10615;42.702;23.314;2023-03-30T05:33:22;12.00;;;5.20;;
20910;SDS011;10615;42.702;23.314;2023-03-30T05:34:23;11.32;;;7.00;;
20910;SDS011;10615;42.702;23.314;2023-03-30T05:35:23;11.63;;;7.15;;
20910;SDS011;10615;42.702;23.314;2023-03-30T05:36:24;13.80;;;6.55;;
20910;SDS011;10615;42.702;23.314;2023-03-30T05:37:25;19.85;;;11.75;;
20910;SDS011;10615;42.702;23.314;2023-03-30T05:38:26;12.70;;;8.38;;
20910;SDS011;10615;42.702;23.314;2023-03-30T05:39:27;16.42;;;9.68;;
20910;SDS011;10615;42.702;23.314;2023-03-30T05:40:27;15.25;;;7.82;;
20910;SDS011;10615;42.702;23.314;2023-03-30T05:41:28;10.10;;;6.55;;
20910;SDS011;10615;42.702;23.314;2023-03-30T05:42:29;11.68;;;5.60;;
20910;SDS011;10615;42.702;23.314;2023-03-30T05:43:30;12.27;;;5.88;;
20910;SDS011;10615;42.702;23.314;2023-03-30T05:44:32;12.77;;;7.95;;
20910;SDS011;10615;42.702;23.314;2023-03-30T05:45:33;20.40;;;12.20;;
20910;SDS011;10615;42.702;23.314;2023-03-30T05:46:33;19.83;;;13.38;;
20910;SDS011;10615;42.702;23.314;2023-03-30T05:47:34;18.38;;;11.80;;
20910;SDS011;10615;42.702;23.314;2023-03-30T05:48:35;14.02;;;10.05;;
20910;SDS011;10615;42.702;23.314;2023-03-30T05:49:35;18.00;;;10.18;;
20910;SDS011;10615;42.702;23.314;2023-03-30T05:50:36;27.63;;;15.38;;
20910;SDS011;10615;42.702;23.314;2023-03-30T05:51:37;15.57;;;8.77;;
20910;SDS011;10615;42.702;23.314;2023-03-30T05:52:38;13.05;;;7.45;;
20910;SDS011;10615;42.702;23.314;2023-03-30T05:53:38;13.13;;;8.20;;
20910;SDS011;10615;42.702;23.314;2023-03-30T05:54:39;21.08;;;13.57;;
20910;SDS011;10615;42.702;23.314;2023-03-30T05:55:43;13.60;;;8.82;;
20910;SDS011;10615;42.702;23.314;2023-03-30T05:56:45;14.48;;;7.60;;
20910;SDS011;10615;42.702;23.314;2023-03-30T05:57:46;8.82;;;6.07;;
20910;SDS011;10615;42.702;23.314;2023-03-30T05:58:47;10.20;;;5.60;;
20910;SDS011;10615;42.702;23.314;2023-03-30T05:59:47;7.28;;;5.13;;
20910;SDS011;10615;42.702;23.314;2023-03-30T06:01:03;8.40;;;4.80;;
20910;SDS011;10615;42.702;23.314;2023-03-30T06:02:04;10.43;;;4.95;;
20910;SDS011;10615;42.702;23.314;2023-03-30T06:03:06;11.45;;;6.22;;
20910;SDS011;10615;42.702;23.314;2023-03-30T06:04:08;22.48;;;14.35;;
20910;SDS011;10615;42.702;23.314;2023-03-30T06:05:08;29.27;;;20.70;;
20910;SDS011;10615;42.702;23.314;2023-03-30T06:06:09;32.65;;;20.85;;
20910;SDS011;10615;42.702;23.314;2023-03-30T06:07:11;39.50;;;27.30;;
20910;SDS011;10615;42.702;23.314;2023-03-30T06:08:11;16.38;;;8.95;;
20910;SDS011;10615;42.702;23.314;2023-03-30T06:09:12;11.32;;;4.63;;
20910;SDS011;10615;42.702;23.314;2023-03-30T06:10:13;6.10;;;4.10;;
20910;SDS011;10615;42.702;23.314;2023-03-30T06:11:14;9.02;;;4.25;;
20910;SDS011;10615;42.702;23.314;2023-03-30T06:12:15;10.02;;;4.10;;
20910;SDS011;10615;42.702;23.314;2023-03-30T06:13:15;8.32;;;4.70;;
20910;SDS011;10615;42.702;23.314;2023-03-30T06:14:16;11.70;;;5.30;;
20910;SDS011;10615;42.702;23.314;2023-03-30T06:15:17;9.80;;;5.00;;
20910;SDS011;10615;42.702;23.314;2023-03-30T06:16:18;10.23;;;5.13;;
20910;SDS011;10615;42.702;23.314;2023-03-30T06:17:18;8.75;;;4.93;;
20910;SDS011;10615;42.702;23.314;2023-03-30T06:18:20;9.13;;;5.25;;
20910;SDS011;10615;42.702;23.314;2023-03-30T06:19:21;14.38;;;6.18;;
20910;SDS011;10615;42.702;23.314;2023-03-30T06:20:22;8.43;;;5.10;;
20910;SDS011;10615;42.702;23.314;2023-03-30T06:21:23;8.98;;;4.88;;
20910;SDS011;10615;42.702;23.314;2023-03-30T06:22:24;10.82;;;5.82;;
20910;SDS011;10615;42.702;23.314;2023-03-30T06:23:25;7.30;;;4.63;;
20910;SDS011;10615;42.702;23.314;2023-03-30T06:24:27;13.00;;;5.45;;
20910;SDS011;10615;42.702;23.314;2023-03-30T06:25:28;18.83;;;6.28;;
20910;SDS011;10615;42.702;23.314;2023-03-30T06:26:29;16.08;;;5.65;;
20910;SDS011;10615;42.702;23.314;2023-03-30T06:27:29;17.60;;;5.40;;
20910;SDS011;10615;42.702;23.314;2023-03-30T06:28:31;14.13;;;4.93;;
20910;SDS011;10615;42.702;23.314;2023-03-30T06:29:32;16.63;;;5.05;;
20910;SDS011;10615;42.702;23.314;2023-03-30T06:30:33;11.27;;;6.32;;
20910;SDS011;10615;42.702;23.314;2023-03-30T06:31:34;12.00;;;5.93;;
20910;SDS011;10615;42.702;23.314;2023-03-30T06:32:35;10.25;;;5.32;;
20910;SDS011;10615;42.702;23.314;2023-03-30T06:33:35;12.75;;;6.28;;
20910;SDS011;10615;42.702;23.314;2023-03-30T06:34:36;23.98;;;11.93;;
20910;SDS011;10615;42.702;23.314;2023-03-30T06:35:37;18.65;;;12.38;;
20910;SDS011;10615;42.702;23.314;2023-03-30T06:36:37;18.38;;;10.80;;
20910;SDS011;10615;42.702;23.314;2023-03-30T06:37:38;10.60;;;7.70;;
20910;SDS011;10615;42.702;23.314;2023-03-30T06:38:39;15.93;;;8.20;;
20910;SDS011;10615;42.702;23.314;2023-03-30T06:39:43;14.00;;;7.10;;
20910;SDS011;10615;42.702;23.314;2023-03-30T06:40:44;9.90;;;6.10;;
20910;SDS011;10615;42.702;23.314;2023-03-30T06:41:45;10.50;;;6.40;;
20910;SDS011;10615;42.702;23.314;2023-03-30T06:42:46;14.18;;;6.30;;
20910;SDS011;10615;42.702;23.314;2023-03-30T06:43:47;11.98;;;6.38;;
20910;SDS011;10615;42.702;23.314;2023-03-30T06:44:47;15.18;;;6.28;;
20910;SDS011;10615;42.702;23.314;2023-03-30T06:45:51;18.02;;;6.95;;
20910;SDS011;10615;42.702;23.314;2023-03-30T06:46:53;11.85;;;6.45;;
20910;SDS011;10615;42.702;23.314;2023-03-30T06:47:55;13.40;;;5.88;;
20910;SDS011;10615;42.702;23.314;2023-03-30T06:48:55;10.70;;;6.63;;
20910;SDS011;10615;42.702;23.314;2023-03-30T06:49:56;13.70;;;6.88;;
20910;SDS011;10615;42.702;23.314;2023-03-30T06:50:57;19.17;;;6.53;;
20910;SDS011;10615;42.702;23.314;2023-03-30T06:51:58;15.13;;;7.47;;
20910;SDS011;10615;42.702;23.314;2023-03-30T06:52:58;13.20;;;6.55;;
20910;SDS011;10615;42.702;23.314;2023-03-30T06:53:59;13.32;;;7.60;;
20910;SDS011;10615;42.702;23.314;2023-03-30T06:55:01;12.32;;;8.77;;
20910;SDS011;10615;42.702;23.314;2023-03-30T06:56:02;12.25;;;7.47;;
20910;SDS011;10615;42.702;23.314;2023-03-30T06:57:03;12.30;;;6.63;;
20910;SDS011;10615;42.702;23.314;2023-03-30T06:58:03;12.55;;;6.80;;
20910;SDS011;10615;42.702;23.314;2023-03-30T06:59:04;14.05;;;7.38;;
20910;SDS011;10615;42.702;23.314;2023-03-30T07:00:06;10.60;;;6.85;;
20910;SDS011;10615;42.702;23.314;2023-03-30T07:01:13;19.52;;;6.70;;
20910;SDS011;10615;42.702;23.314;2023-03-30T07:02:14;14.70;;;8.38;;
20910;SDS011;10615;42.702;23.314;2023-03-30T07:03:15;12.88;;;7.53;;
20910;SDS011;10615;42.702;23.314;2023-03-30T07:04:19;25.70;;;16.42;;